Tizayuca Airport

Jump to: basic info | weather | runways | comments

Related pages: nearby airports | nearby navaids | notams | map

Basic information (top)

Codes: MM28
Location: lon 19.874001, lat -98.943604, elev 7,600 ft / 2,316 m msl
Status: small_airport

Weather (top)

Current conditions for Licenciado Benito Juarez International Airport 27nm (50km) SSW (rec'd 2014/07/25 17:49Z):

MMMX 251749Z 04004KT 4SM SCT200 20/10 A3038 NOSIG RMK SLP130 57004 904 8/001 HZY ISOL CU

Airport forecast for Licenciado Benito Juarez International Airport 27nm (50km) SSW (rec'd 2014/07/25 12:00Z):

TAF COR MMMX 251154Z 2512/2618 00000KT 2 1/2SM BR HZ SCT020 BKN200 TX24/2521Z TN12/2512Z 
     FM251500 09005KT 5SM HZ SCT020 SCT250 
     FM252100 08010KT P6SM SCT020CB BKN100 
      TEMPO 2522/2602 3SM TSRA BKN015CB 
     FM260300 03005KT P6SM SCT020

Runways (top)

01/19: 4,235 x 80 ft (1,291 x 24 m) — paved — not lighted

Latest comments (top)

No comments yet for Tizayuca Airport

More... (top)

See also NOTAMs and nearby airports and navaids, or visit the Tizayuca Airport page at the main OurAirports website..